createdAt,value
2018-12-01T00:01:56.366Z,21.10
2018-12-01T00:05:00.954Z,34.53
2018-12-01T00:08:05.786Z,28.70
2018-12-01T00:11:10.374Z,22.83
2018-12-01T00:14:14.937Z,23.33
2018-12-01T00:17:19.514Z,28.53
2018-12-01T00:20:25.457Z,26.43
2018-12-01T00:23:30.142Z,23.60
2018-12-01T00:26:34.727Z,27.73
2018-12-01T00:29:39.560Z,24.13
2018-12-01T00:32:44.718Z,24.10
2018-12-01T00:35:49.342Z,24.13
2018-12-01T00:38:54.023Z,28.10
2018-12-01T00:41:58.600Z,26.20
2018-12-01T00:45:03.190Z,25.87
2018-12-01T00:48:07.750Z,28.80
2018-12-01T00:51:12.330Z,32.73
2018-12-01T00:54:16.859Z,27.37
2018-12-01T00:57:21.506Z,24.13
2018-12-01T01:00:26.804Z,24.10
2018-12-01T01:03:31.422Z,22.37
2018-12-01T01:06:35.975Z,24.33
2018-12-01T01:09:40.589Z,20.57
2018-12-01T01:12:45.162Z,24.97
2018-12-01T01:15:49.758Z,24.33
2018-12-01T01:18:54.390Z,25.03
2018-12-01T01:21:58.982Z,28.63
2018-12-01T01:25:03.561Z,22.73
2018-12-01T01:28:08.314Z,22.30
2018-12-01T01:31:12.953Z,24.93
2018-12-01T01:34:17.529Z,25.77
2018-12-01T01:37:22.202Z,26.03
2018-12-01T01:40:26.745Z,26.47
2018-12-01T01:43:31.381Z,27.73
2018-12-01T01:46:35.902Z,22.20
2018-12-01T01:49:40.483Z,26.40
2018-12-01T01:52:45.145Z,21.80
2018-12-01T01:55:49.721Z,23.67
2018-12-01T01:58:54.394Z,25.13
2018-12-01T02:01:58.946Z,22.50
2018-12-01T02:05:03.494Z,25.00
2018-12-01T02:08:08.100Z,26.57
2018-12-01T02:11:12.690Z,26.27
2018-12-01T02:14:17.457Z,26.70
2018-12-01T02:17:21.991Z,26.37
2018-12-01T02:20:26.534Z,26.77
2018-12-01T02:23:31.189Z,24.47
2018-12-01T02:26:35.819Z,22.60
2018-12-01T02:29:40.468Z,23.53
2018-12-01T02:32:45.008Z,21.00
2018-12-01T02:35:49.609Z,18.20
2018-12-01T02:38:54.446Z,19.50
2018-12-01T02:41:59.058Z,18.30
2018-12-01T02:45:14.659Z,21.57
2018-12-01T02:48:19.202Z,25.73
2018-12-01T02:51:23.757Z,21.10
2018-12-01T02:54:28.326Z,22.27
2018-12-01T02:57:32.897Z,20.97
2018-12-01T03:00:44.360Z,20.83
2018-12-01T03:03:48.953Z,17.50
2018-12-01T03:06:53.487Z,17.37
2018-12-01T03:09:58.093Z,13.73
2018-12-01T03:13:02.651Z,17.83
2018-12-01T03:16:07.369Z,19.03
2018-12-01T03:19:11.929Z,18.43
2018-12-01T03:22:16.521Z,14.87
2018-12-01T03:25:22.821Z,19.17
2018-12-01T03:28:27.385Z,21.03
2018-12-01T03:31:31.964Z,15.90
2018-12-01T03:34:36.555Z,15.90
2018-12-01T03:37:43.787Z,17.67
2018-12-01T03:40:48.437Z,16.83
2018-12-01T03:43:53.052Z,21.87
2018-12-01T03:46:57.676Z,17.33
2018-12-01T03:50:02.228Z,16.40
2018-12-01T03:53:07.591Z,18.53
2018-12-01T03:56:12.297Z,15.83
2018-12-01T03:59:16.973Z,16.10
2018-12-01T04:02:21.517Z,17.20
2018-12-01T04:05:26.126Z,15.00
2018-12-01T04:08:30.674Z,13.80
2018-12-01T04:11:35.321Z,13.93
2018-12-01T04:14:40.033Z,15.80
2018-12-01T04:17:44.602Z,17.53
2018-12-01T04:20:49.146Z,17.57
2018-12-01T04:23:53.726Z,15.57
2018-12-01T04:26:59.246Z,16.23
2018-12-01T04:30:04.409Z,17.87
2018-12-01T04:33:09.133Z,19.20
2018-12-01T04:36:13.736Z,18.43
2018-12-01T04:39:18.723Z,17.33
2018-12-01T04:42:23.463Z,19.93
2018-12-01T04:45:28.029Z,14.30
2018-12-01T04:48:32.629Z,18.67
2018-12-01T04:51:37.240Z,20.17
2018-12-01T04:54:41.802Z,21.63
2018-12-01T04:57:46.401Z,26.20
2018-12-01T05:00:50.972Z,23.80
2018-12-01T05:03:55.518Z,24.00
2018-12-01T05:07:00.205Z,22.03
2018-12-01T05:10:06.528Z,22.37
2018-12-01T05:13:11.138Z,19.20
2018-12-01T05:16:15.680Z,25.37
2018-12-01T05:19:20.253Z,18.60
2018-12-01T05:22:24.888Z,18.37
2018-12-01T05:25:29.479Z,19.97
2018-12-01T05:28:34.009Z,21.47
2018-12-01T05:31:38.560Z,22.73
2018-12-01T05:34:43.149Z,18.87
2018-12-01T05:37:47.698Z,18.43
2018-12-01T05:40:52.789Z,16.20
2018-12-01T05:43:57.419Z,20.63
2018-12-01T05:47:02.022Z,21.17
2018-12-01T05:50:07.869Z,22.77
2018-12-01T05:53:12.498Z,20.77
2018-12-01T05:56:17.177Z,16.40
2018-12-01T05:59:21.733Z,20.47
2018-12-01T06:02:26.274Z,30.70
2018-12-01T06:05:30.892Z,18.17
2018-12-01T06:08:35.414Z,16.50
2018-12-01T06:11:40.025Z,21.63
2018-12-01T06:14:44.660Z,18.93
2018-12-01T06:17:49.208Z,21.40
2018-12-01T06:20:53.753Z,23.33
2018-12-01T06:23:58.378Z,21.57
2018-12-01T06:27:02.918Z,46.33
2018-12-01T06:30:17.190Z,33.80
2018-12-01T06:33:21.741Z,51.17
2018-12-01T06:36:26.360Z,31.43
2018-12-01T06:39:30.899Z,32.73
2018-12-01T06:42:35.431Z,32.57
2018-12-01T06:45:39.958Z,29.57
2018-12-01T06:48:44.630Z,43.00
2018-12-01T06:51:49.233Z,69.33
2018-12-01T06:54:53.855Z,41.10
2018-12-01T06:57:58.398Z,33.03
2018-12-01T07:01:03.008Z,24.97
2018-12-01T07:04:07.562Z,36.20
2018-12-01T07:07:12.114Z,35.90
2018-12-01T07:10:18.890Z,35.27
2018-12-01T07:13:23.453Z,37.77
2018-12-01T07:16:28.024Z,36.60
2018-12-01T07:19:32.609Z,42.40
2018-12-01T07:22:37.167Z,46.67
2018-12-01T07:25:41.869Z,43.70
2018-12-01T07:28:46.410Z,45.40
2018-12-01T07:31:51.029Z,51.73
2018-12-01T07:34:55.607Z,55.77
2018-12-01T07:38:01.214Z,65.10
2018-12-01T07:41:06.294Z,70.07
2018-12-01T07:44:10.914Z,73.60
2018-12-01T07:47:15.518Z,73.90
2018-12-01T07:50:20.701Z,67.40
2018-12-01T07:53:25.250Z,71.17
2018-12-01T07:56:31.057Z,75.90
2018-12-01T07:59:35.657Z,72.93
2018-12-01T08:02:40.421Z,76.40
2018-12-01T08:05:45.004Z,75.00
2018-12-01T08:08:49.625Z,78.43
2018-12-01T08:11:54.179Z,78.47
2018-12-01T08:14:58.750Z,76.40
2018-12-01T08:18:04.432Z,78.00
2018-12-01T08:21:09.020Z,89.37
2018-12-01T08:24:13.590Z,83.87
2018-12-01T08:27:18.185Z,83.53
2018-12-01T08:30:24.130Z,79.53
2018-12-01T08:33:28.761Z,83.87
2018-12-01T08:36:33.635Z,84.83
2018-12-01T08:39:38.807Z,88.27
2018-12-01T08:42:43.921Z,80.53
2018-12-01T08:45:49.053Z,89.43
2018-12-01T08:48:53.950Z,79.03
2018-12-01T08:51:58.903Z,89.03
2018-12-01T08:55:03.492Z,84.10
2018-12-01T08:58:08.094Z,91.93
2018-12-01T09:01:12.653Z,85.93
2018-12-01T09:04:17.238Z,90.03
2018-12-01T09:07:21.838Z,82.47
2018-12-01T09:10:26.402Z,90.23
2018-12-01T09:13:31.504Z,94.80
2018-12-01T09:16:36.440Z,132.47
2018-12-01T09:19:41.047Z,103.40
2018-12-01T09:22:46.419Z,87.90
2018-12-01T09:25:50.954Z,95.97
2018-12-01T09:28:55.613Z,84.27
2018-12-01T09:32:00.210Z,84.13
2018-12-01T09:35:04.853Z,91.27
2018-12-01T09:38:09.426Z,90.77
2018-12-01T09:41:14.007Z,96.53
2018-12-01T09:44:18.561Z,94.43
2018-12-01T09:47:23.166Z,115.93
2018-12-01T09:50:27.796Z,94.60
2018-12-01T09:53:32.405Z,101.00
2018-12-01T09:56:36.958Z,114.37
2018-12-01T09:59:41.570Z,92.73
2018-12-01T10:02:47.897Z,91.20
2018-12-01T10:05:52.488Z,88.07
2018-12-01T10:08:57.926Z,91.83
2018-12-01T10:12:02.570Z,75.23
2018-12-01T10:15:11.314Z,237.73
2018-12-01T10:18:17.050Z,118.73
2018-12-01T10:21:21.869Z,96.30
2018-12-01T10:24:26.558Z,72.70
2018-12-01T10:27:31.182Z,75.67
2018-12-01T10:30:35.768Z,75.90
2018-12-01T10:33:40.509Z,143.73
2018-12-01T10:36:46.532Z,68.50
2018-12-01T10:39:51.433Z,71.57
2018-12-01T10:42:56.019Z,72.30
2018-12-01T10:46:00.611Z,71.60
2018-12-01T10:49:05.337Z,65.33
2018-12-01T10:52:10.222Z,61.27
2018-12-01T10:55:33.935Z,70.73
2018-12-01T10:58:38.636Z,73.43
2018-12-01T11:01:48.335Z,75.77
2018-12-01T11:04:52.988Z,82.73
2018-12-01T11:07:57.524Z,92.77
2018-12-01T11:11:02.157Z,91.57
2018-12-01T11:14:06.837Z,93.87
2018-12-01T11:17:11.442Z,97.37
2018-12-01T11:20:16.012Z,99.23
2018-12-01T11:23:20.662Z,90.63
2018-12-01T11:26:25.290Z,103.63
2018-12-01T11:29:29.889Z,81.93
2018-12-01T11:32:34.523Z,95.40
2018-12-01T11:35:39.205Z,97.50
2018-12-01T11:38:43.775Z,100.33
2018-12-01T11:41:48.389Z,100.03
2018-12-01T11:44:56.869Z,101.70
2018-12-01T11:47:57.651Z,108.67
2018-12-01T11:51:02.275Z,121.97
2018-12-01T11:54:06.874Z,104.53
2018-12-01T11:57:11.509Z,108.73
2018-12-01T12:00:17.019Z,100.03
2018-12-01T12:03:21.743Z,110.53
2018-12-01T12:06:26.374Z,106.23
2018-12-01T12:09:31.029Z,93.27
2018-12-01T12:12:35.721Z,98.57
2018-12-01T12:15:40.397Z,97.60
2018-12-01T12:18:45.119Z,99.43
2018-12-01T12:21:49.750Z,105.30
2018-12-01T12:24:54.293Z,100.83
2018-12-01T12:27:59.084Z,106.00
2018-12-01T12:31:03.695Z,102.90
2018-12-01T12:34:08.313Z,109.80
2018-12-01T12:37:12.943Z,101.37
2018-12-01T12:40:27.034Z,112.73
2018-12-01T12:43:31.621Z,104.20
2018-12-01T12:46:36.241Z,100.67
2018-12-01T12:49:40.902Z,109.80
2018-12-01T12:52:46.570Z,101.87
2018-12-01T12:55:51.186Z,104.23
2018-12-01T12:58:55.796Z,95.47
2018-12-01T13:02:00.350Z,98.70
2018-12-01T13:05:06.276Z,99.53
2018-12-01T13:08:11.658Z,100.13
2018-12-01T13:11:16.266Z,93.53
2018-12-01T13:14:21.058Z,91.03
2018-12-01T13:17:25.607Z,91.10
2018-12-01T13:20:30.142Z,92.63
2018-12-01T13:23:34.801Z,91.30
2018-12-01T13:26:39.458Z,92.93
2018-12-01T13:29:44.051Z,89.10
2018-12-01T13:32:48.806Z,88.57
2018-12-01T13:35:53.429Z,85.83
2018-12-01T13:38:58.336Z,90.00
2018-12-01T13:42:03.003Z,96.90
2018-12-01T13:45:09.930Z,118.00
2018-12-01T13:48:14.577Z,98.47
2018-12-01T13:51:19.280Z,94.07
2018-12-01T13:54:23.927Z,94.27
2018-12-01T13:57:28.487Z,101.17
2018-12-01T14:00:33.133Z,96.50
2018-12-01T14:03:38.334Z,83.97
2018-12-01T14:06:42.355Z,94.57
2018-12-01T14:09:46.928Z,149.23
2018-12-01T14:12:52.906Z,102.50
2018-12-01T14:15:57.466Z,95.90
2018-12-01T14:19:02.068Z,96.87
2018-12-01T14:22:06.614Z,94.13
2018-12-01T14:25:12.091Z,71.90
2018-12-01T14:28:16.678Z,59.37
2018-12-01T14:31:21.263Z,64.10
2018-12-01T14:34:25.848Z,64.73
2018-12-01T14:37:30.414Z,61.87
2018-12-01T14:40:35.110Z,66.77
2018-12-01T14:43:39.686Z,100.83
2018-12-01T14:46:44.511Z,103.80
2018-12-01T14:49:49.162Z,72.93
2018-12-01T14:52:53.741Z,83.40
2018-12-01T14:55:58.338Z,73.33
2018-12-01T14:59:02.966Z,145.07
2018-12-01T15:02:07.821Z,225.33
2018-12-01T15:05:12.541Z,227.00
2018-12-01T15:08:17.117Z,216.30
2018-12-01T15:11:21.818Z,195.20
2018-12-01T15:14:26.468Z,246.73
2018-12-01T15:17:30.993Z,148.87
2018-12-01T15:20:35.826Z,161.10
2018-12-01T15:23:40.380Z,168.80
2018-12-01T15:26:45.001Z,170.13
2018-12-01T15:29:49.581Z,169.40
2018-12-01T15:33:11.466Z,187.17
2018-12-01T15:36:16.528Z,191.50
2018-12-01T15:39:28.246Z,153.37
2018-12-01T15:42:32.830Z,161.17
2018-12-01T15:45:37.499Z,137.57
2018-12-01T15:48:42.175Z,141.57
2018-12-01T15:51:46.850Z,129.80
2018-12-01T15:54:51.502Z,114.90
2018-12-01T15:57:56.085Z,130.27
2018-12-01T16:01:00.763Z,134.90
2018-12-01T16:04:05.905Z,151.20
2018-12-01T16:07:10.505Z,189.17
2018-12-01T16:10:16.540Z,182.93
2018-12-01T16:13:22.502Z,152.57
2018-12-01T16:16:27.190Z,92.10
2018-12-01T16:19:31.792Z,98.13
2018-12-01T16:22:36.530Z,85.83
2018-12-01T16:25:41.147Z,100.77
2018-12-01T16:28:45.740Z,105.17
2018-12-01T16:31:50.343Z,184.60
2018-12-01T16:34:55.177Z,162.43
2018-12-01T16:37:59.880Z,127.57
2018-12-01T16:41:36.816Z,166.83
2018-12-01T16:44:41.457Z,102.17
2018-12-01T16:47:46.128Z,113.87
2018-12-01T16:50:50.910Z,101.77
2018-12-01T16:53:55.673Z,108.47
2018-12-01T16:57:00.322Z,132.60
2018-12-01T17:00:08.483Z,135.83
2018-12-01T17:03:13.959Z,132.27
2018-12-01T17:06:19.708Z,125.03
2018-12-01T17:09:24.321Z,120.33
2018-12-01T17:12:28.992Z,120.13
2018-12-01T17:15:33.889Z,112.13
2018-12-01T17:18:38.546Z,125.87
2018-12-01T17:21:43.261Z,121.17
2018-12-01T17:24:47.969Z,115.10
2018-12-01T17:27:53.704Z,167.57
2018-12-01T17:30:58.297Z,145.67
2018-12-01T17:34:02.918Z,157.33
2018-12-01T17:37:07.535Z,150.63
2018-12-01T17:40:41.230Z,149.30
2018-12-01T17:43:50.092Z,158.40
2018-12-01T17:46:55.987Z,150.47
2018-12-01T17:50:00.642Z,155.70
2018-12-01T17:53:10.493Z,169.57
2018-12-01T17:56:18.072Z,187.33
2018-12-01T17:59:22.716Z,185.40
2018-12-01T18:02:27.398Z,175.80
2018-12-01T18:05:42.202Z,206.60
2018-12-01T18:08:46.777Z,200.37
2018-12-01T18:11:51.495Z,164.37
2018-12-01T18:14:56.318Z,178.63
2018-12-01T18:18:01.064Z,182.23
2018-12-01T18:21:05.840Z,177.03
2018-12-01T18:24:10.543Z,162.97
2018-12-01T18:27:15.221Z,190.13
2018-12-01T18:30:24.571Z,169.63
2018-12-01T18:33:31.069Z,178.77
2018-12-01T18:36:35.706Z,252.50
2018-12-01T18:39:40.361Z,306.30
2018-12-01T18:42:45.006Z,270.60
2018-12-01T18:45:52.341Z,303.37
2018-12-01T18:48:57.875Z,223.23
2018-12-01T18:52:02.538Z,226.47
2018-12-01T18:55:09.765Z,207.33
2018-12-01T18:58:14.493Z,228.80
2018-12-01T19:01:19.066Z,203.73
2018-12-01T19:04:24.179Z,181.10
2018-12-01T19:07:28.802Z,194.00
2018-12-01T19:10:34.300Z,160.43
2018-12-01T19:13:38.994Z,143.40
2018-12-01T19:16:43.661Z,132.00
2018-12-01T19:19:49.233Z,128.63
2018-12-01T19:22:56.654Z,133.93
2018-12-01T19:26:01.749Z,129.33
2018-12-01T19:29:07.086Z,119.03
2018-12-01T19:32:11.802Z,119.63
2018-12-01T19:35:17.222Z,125.40
2018-12-01T19:38:27.995Z,116.73
2018-12-01T19:41:32.631Z,135.93
2018-12-01T19:44:37.260Z,145.50
2018-12-01T19:47:41.905Z,139.63
2018-12-01T19:50:46.566Z,142.07
2018-12-01T19:53:51.217Z,128.00
2018-12-01T19:56:55.850Z,136.73
2018-12-01T20:00:00.522Z,140.80
2018-12-01T20:03:07.098Z,159.43
2018-12-01T20:06:11.929Z,145.77
2018-12-01T20:09:16.587Z,142.97
2018-12-01T20:12:21.253Z,166.23
2018-12-01T20:15:29.594Z,219.37
2018-12-01T20:18:34.214Z,189.93
2018-12-01T20:21:38.838Z,163.80
2018-12-01T20:24:43.620Z,264.83
2018-12-01T20:27:48.247Z,199.23
2018-12-01T20:30:52.841Z,186.63
2018-12-01T20:33:59.300Z,200.90
2018-12-01T20:37:07.651Z,188.33
2018-12-01T20:40:15.923Z,182.50
2018-12-01T20:43:20.474Z,183.10
2018-12-01T20:46:25.165Z,250.37
2018-12-01T20:49:29.843Z,218.37
2018-12-01T20:52:34.417Z,214.40
2018-12-01T20:55:40.042Z,194.17
2018-12-01T20:58:44.621Z,194.70
2018-12-01T21:01:49.226Z,184.63
2018-12-01T21:04:53.786Z,183.90
2018-12-01T21:08:02.245Z,188.60
2018-12-01T21:11:04.897Z,201.20
2018-12-01T21:14:09.520Z,187.57
2018-12-01T21:17:14.209Z,215.43
2018-12-01T21:20:19.281Z,195.10
2018-12-01T21:23:23.843Z,225.13
2018-12-01T21:26:28.400Z,205.70
2018-12-01T21:29:33.067Z,212.97
2018-12-01T21:32:37.621Z,188.27
2018-12-01T21:35:42.306Z,197.37
2018-12-01T21:38:46.859Z,212.30
2018-12-01T21:41:51.509Z,203.90
2018-12-01T21:44:56.076Z,201.00
2018-12-01T21:48:00.626Z,201.90
2018-12-01T21:51:05.215Z,248.30
2018-12-01T21:54:09.791Z,263.00
2018-12-01T21:57:14.438Z,210.20
2018-12-01T22:00:22.250Z,191.13
2018-12-01T22:03:27.770Z,207.40
2018-12-01T22:06:32.385Z,207.63
2018-12-01T22:09:39.555Z,215.37
2018-12-01T22:12:44.383Z,202.17
2018-12-01T22:15:49.044Z,194.27
2018-12-01T22:18:53.614Z,182.20
2018-12-01T22:21:58.324Z,192.87
2018-12-01T22:25:03.030Z,197.90
2018-12-01T22:28:09.639Z,206.30
2018-12-01T22:31:14.345Z,203.67
2018-12-01T22:34:18.928Z,206.07
2018-12-01T22:37:23.495Z,210.73
2018-12-01T22:40:30.293Z,200.97
2018-12-01T22:43:34.878Z,186.27
2018-12-01T22:46:39.531Z,200.83
2018-12-01T22:49:44.175Z,194.57
2018-12-01T22:52:50.475Z,168.63
2018-12-01T22:55:55.108Z,175.97
2018-12-01T22:58:59.661Z,181.47
2018-12-01T23:02:04.420Z,163.37
2018-12-01T23:05:09.080Z,171.63
2018-12-01T23:08:17.152Z,160.50
2018-12-01T23:11:21.874Z,170.33
2018-12-01T23:14:26.525Z,164.50
2018-12-01T23:17:31.242Z,166.37
2018-12-01T23:20:35.911Z,159.37
2018-12-01T23:23:40.503Z,171.87
2018-12-01T23:26:45.163Z,164.87
2018-12-01T23:29:49.734Z,166.23
2018-12-01T23:32:59.533Z,160.77
2018-12-01T23:36:08.203Z,151.73
2018-12-01T23:39:14.105Z,155.60
2018-12-01T23:42:18.699Z,156.30
2018-12-01T23:45:23.663Z,161.97
2018-12-01T23:48:28.362Z,146.63
2018-12-01T23:51:32.929Z,148.07
2018-12-01T23:54:37.559Z,234.67
2018-12-01T23:57:42.205Z,136.27
